Hurley, New York
Current Conditions -  °F | °C
As of 2:53 PM on Sunday 21 Dec 2014 (Local Time) from KPOU Reporting Station
Overcast Overcast  
Wind Chill: 29°   Ceiling: 1600
Heat Index: 33°   Visibility: 10mi
Dew Point: 27°   Wind: 5mph
Humidity: 78%   Direction: 350°N
Pressure: 30.3"   Gusts: NA
Location:  41.93°N, 74.06°W
Report Text: KPOU 211953Z 35004KT 10SM BKN016 OVC027 01/M03 A3030 RMK AO2 SLP258 T00061028
Loading
Personal Weather Stations






























Interactive Weather Map New forecast layout! Learn more

10-Day Weather Forecast

Advertisements
Track Severe Weather on mobile